Time;durP1;ratioP1;P1;durP2;ratioP2;P2;SDS_P1;SDS_P2;PMS_P1;PMS_P2;Temp;Humidity;BMP_temperature;BMP_pressure;BME280_temperature;BME280_humidity;BME280_pressure;Samples;Min_cycle;Max_cycle;Signal;HPM_P1;HPM_P2
2022/10/06 00:01:56;;;;;;;12.00;1.90;;;;;;;-143.48;65.68;79063.31;5094283;28;20417;-70
2022/10/06 00:04:22;;;;;;;10.10;1.80;;;;;;;-143.48;66.33;79079.19;5076105;28;20042;-70
2022/10/06 00:06:47;;;;;;;15.07;1.75;;;;;;;-143.48;65.37;79069.28;5094043;28;20032;-70
2022/10/06 00:09:12;;;;;;;9.52;2.13;;;;;;;-143.48;65.37;79087.13;5075937;28;20467;-70
2022/10/06 00:11:37;;;;;;;12.75;2.35;;;;;;;-143.48;64.89;79073.25;5094042;28;20032;-70
2022/10/06 00:14:03;;;;;;;12.73;1.92;;;;;;;-143.48;64.09;79083.16;5075853;28;20042;-70
2022/10/06 00:16:28;;;;;;;12.85;2.22;;;;;;;-143.48;63.72;79079.19;5075832;28;20049;-70
2022/10/06 00:18:55;;;;;;;10.90;1.70;;;;;;;-143.48;64.12;79089.09;5075753;28;20024;-70
2022/10/06 00:21:21;;;;;;;17.02;2.22;;;;;;;-143.48;64.42;79099.03;5093954;28;20020;-70
2022/10/06 00:23:46;;;;;;;10.73;1.60;;;;;;;-143.48;65.02;79106.97;5093676;28;20107;-70
2022/10/06 00:26:15;;;;;;;9.13;1.58;;;;;;;-143.48;64.43;79114.88;5093691;28;20016;-70
2022/10/06 00:28:47;;;;;;;16.98;3.15;;;;;;;-143.48;65.99;79134.72;5093807;28;20028;-70
2022/10/06 00:31:12;;;;;;;11.95;1.90;;;;;;;-143.48;65.01;79132.75;5093642;28;20436;-71
2022/10/06 00:33:37;;;;;;;12.55;2.40;;;;;;;-143.48;66.17;79146.63;5093717;28;20035;-70
2022/10/06 00:36:03;;;;;;;13.27;2.00;;;;;;;-143.48;66.28;79156.53;5093124;28;20016;-71
2022/10/06 00:38:28;;;;;;;13.90;2.65;;;;;;;-143.48;65.34;79158.53;5093358;28;20020;-70
2022/10/06 00:40:54;;;;;;;10.95;2.00;;;;;;;-143.48;65.50;79166.47;5093604;28;20024;-70
2022/10/06 00:43:47;;;;;;;13.55;1.73;;;;;;;-143.48;65.83;79168.44;5093565;28;20020;-70
2022/10/06 00:46:22;;;;;;;11.45;1.50;;;;;;;-143.48;64.86;79170.44;5075336;28;20039;-70
2022/10/06 00:48:52;;;;;;;13.75;2.30;;;;;;;-143.48;66.17;79190.28;5093460;28;20028;-71
2022/10/06 00:51:19;;;;;;;11.70;1.73;;;;;;;-143.48;65.48;79196.22;5074962;28;20039;-70
2022/10/06 00:53:44;;;;;;;14.85;1.90;;;;;;;-143.48;65.12;79206.13;5092846;28;20027;-70
2022/10/06 00:56:10;;;;;;;15.85;2.47;;;;;;;-143.48;65.32;79214.06;5093291;28;20020;-70
2022/10/06 00:58:37;;;;;;;11.57;1.50;;;;;;;-143.48;65.40;79225.97;5093298;28;20498;-70
2022/10/06 01:01:02;;;;;;;12.80;1.95;;;;;;;-143.48;65.16;79229.94;5093434;28;20046;-70
2022/10/06 01:03:35;;;;;;;10.63;1.60;;;;;;;-143.48;64.71;79225.97;5093269;28;20024;-70
2022/10/06 01:06:01;;;;;;;;;;;;;;;-143.48;63.35;79210.09;5093478;28;20390;-70
2022/10/06 01:08:28;;;;;;;12.25;1.60;;;;;;;-143.48;64.10;79222.00;5093388;28;20371;-70
2022/10/06 01:10:53;;;;;;;11.30;1.60;;;;;;;-143.48;64.19;79231.94;5075122;28;20467;-70
2022/10/06 01:13:19;;;;;;;11.65;1.70;;;;;;;-143.48;63.21;79225.97;5093144;28;20023;-70
2022/10/06 01:16:02;;;;;;;12.82;1.70;;;;;;;-143.48;62.82;79233.91;5093175;28;20028;-70
2022/10/06 01:18:30;;;;;;;9.00;1.50;;;;;;;-143.48;62.87;79243.81;5093178;28;20490;-70
2022/10/06 01:21:13;;;;;;;9.82;1.52;;;;;;;-143.48;64.21;79261.69;5075046;28;20024;-70
2022/10/06 01:23:39;;;;;;;11.93;1.83;;;;;;;-143.48;64.38;79267.63;5074995;28;20035;-70
2022/10/06 01:26:09;;;;;;;11.75;1.40;;;;;;;-143.48;63.36;79263.66;5093027;28;20020;-70
2022/10/06 01:28:35;;;;;;;15.38;2.15;;;;;;;-143.48;63.72;79271.59;5074894;28;20035;-70
2022/10/06 01:31:03;;;;;;;13.63;1.92;;;;;;;-143.48;63.32;79283.50;5093033;28;20028;-70
2022/10/06 01:33:28;;;;;;;8.77;1.80;;;;;;;-143.48;63.85;79285.47;5092992;28;20099;-69
2022/10/06 01:35:54;;;;;;;10.77;1.70;;;;;;;-143.48;64.55;79309.28;5074900;28;20121;-70
2022/10/06 01:38:20;;;;;;;13.30;2.03;;;;;;;-143.48;64.28;79301.34;5092901;28;20034;-71
2022/10/06 01:40:47;;;;;;;11.30;1.70;;;;;;;-143.48;64.45;79305.31;5074798;28;20119;-71
2022/10/06 01:43:12;;;;;;;12.02;1.58;;;;;;;-143.48;64.80;79313.25;5092901;28;20020;-71
2022/10/06 01:45:38;;;;;;;10.60;1.60;;;;;;;-143.48;65.01;79307.31;5093093;28;20051;-70
2022/10/06 01:48:03;;;;;;;8.55;1.35;;;;;;;-143.48;64.86;79319.22;5092883;28;20020;-70
2022/10/06 01:50:29;;;;;;;10.70;1.92;;;;;;;-143.48;65.62;79327.13;5092761;28;20055;-70
2022/10/06 01:52:56;;;;;;;11.32;1.90;;;;;;;-143.48;65.63;79345.00;5074569;28;20024;-70
2022/10/06 01:55:22;;;;;;;6.38;1.55;;;;;;;-143.48;66.27;79345.00;5092788;28;20076;-70
2022/10/06 01:57:47;;;;;;;14.48;1.98;;;;;;;-143.48;65.46;79339.03;5092812;28;20169;-69
2022/10/06 02:00:13;;;;;;;14.05;1.85;;;;;;;-143.48;65.84;79341.03;5074744;28;20479;-71
2022/10/06 02:02:38;;;;;;;8.43;1.48;;;;;;;-143.48;65.80;79345.00;5092603;28;20176;-71
2022/10/06 02:05:04;;;;;;;14.82;1.73;;;;;;;-143.48;65.15;79352.94;5092835;28;20020;-71
2022/10/06 02:07:30;;;;;;;16.25;1.83;;;;;;;-143.48;65.15;79352.94;5074734;28;20031;-71
2022/10/06 02:09:55;;;;;;;5.85;1.52;;;;;;;-143.48;65.05;79360.88;5074638;28;20024;-70
2022/10/06 02:12:21;;;;;;;9.90;1.60;;;;;;;-143.48;65.05;79356.91;5074088;28;20020;-70
2022/10/06 02:14:46;;;;;;;9.25;1.92;;;;;;;-143.48;64.57;79368.78;5092796;28;20136;-71
2022/10/06 02:17:11;;;;;;;8.93;1.70;;;;;;;-143.48;63.69;79366.81;5074475;28;20016;-70
2022/10/06 02:19:37;;;;;;;11.82;1.70;;;;;;;-143.48;64.30;79366.81;5094718;28;20066;-71
2022/10/06 02:22:03;;;;;;;11.63;1.88;;;;;;;-143.48;64.43;79376.72;5096078;28;20035;-70
2022/10/06 02:24:29;;;;;;;13.52;1.50;;;;;;;-143.48;64.73;79386.66;5096116;28;20024;-69
2022/10/06 02:26:54;;;;;;;9.57;1.83;;;;;;;-143.48;64.85;79400.53;5096033;28;20120;-70
2022/10/06 02:29:19;;;;;;;12.85;2.10;;;;;;;-143.48;65.06;79408.47;5077554;28;20407;-70
2022/10/06 02:31:45;;;;;;;8.82;1.55;;;;;;;-143.48;64.87;79404.50;5094940;28;20024;-69
2022/10/06 02:34:11;;;;;;;9.38;1.65;;;;;;;-143.48;65.15;79402.53;5095879;28;20024;-69
2022/10/06 02:36:37;;;;;;;12.80;1.60;;;;;;;-143.48;63.90;79414.44;5095604;28;20441;-71
2022/10/06 02:39:03;;;;;;;9.48;1.48;;;;;;;-143.48;64.28;79416.41;5074389;28;20131;-70
2022/10/06 02:41:28;;;;;;;10.45;1.40;;;;;;;-143.48;64.21;79428.31;5074289;28;20058;-70
2022/10/06 02:43:54;;;;;;;9.68;1.73;;;;;;;-143.48;64.49;79434.25;5074587;28;20036;-71
2022/10/06 02:46:19;;;;;;;10.88;1.70;;;;;;;-143.48;63.60;79434.25;5074113;28;20024;-71
2022/10/06 02:48:45;;;;;;;9.85;1.55;;;;;;;-143.48;63.74;79440.22;5075104;28;20545;-71
2022/10/06 02:51:14;;;;;;;9.52;1.38;;;;;;;-143.48;63.93;79442.19;5074190;28;20020;-70
2022/10/06 02:53:41;;;;;;;9.05;1.63;;;;;;;-143.48;65.04;79462.03;5073620;28;20047;-70
2022/10/06 02:56:16;;;;;;;12.18;1.70;;;;;;;-143.48;65.05;79467.97;5074076;28;20523;-70
2022/10/06 02:58:43;;;;;;;10.00;1.50;;;;;;;-143.48;65.89;79473.94;5075203;28;20406;-70
2022/10/06 03:01:11;;;;;;;16.08;2.03;;;;;;;-143.48;64.71;79479.88;5075218;28;20032;-70
2022/10/06 03:03:37;;;;;;;11.48;1.67;;;;;;;-143.48;64.33;79477.91;5075155;28;20395;-71
2022/10/06 03:06:03;;;;;;;11.00;1.80;;;;;;;-143.48;64.83;79485.84;5075047;28;20028;-71
2022/10/06 03:08:29;;;;;;;13.45;1.70;;;;;;;-143.48;65.69;79491.78;5074942;28;20025;-70
2022/10/06 03:11:02;;;;;;;12.77;1.80;;;;;;;-143.48;65.67;79499.72;5075086;28;20025;-71
2022/10/06 03:13:28;;;;;;;8.32;1.35;;;;;;;-143.48;67.12;79521.53;5074986;28;20047;-71
2022/10/06 03:15:53;;;;;;;14.50;2.10;;;;;;;-143.48;66.78;79519.56;5074923;28;20062;-70
2022/10/06 03:18:19;;;;;;;14.45;1.73;;;;;;;-143.48;66.09;79511.63;5074837;28;20471;-70
2022/10/06 03:20:44;;;;;;;11.55;1.73;;;;;;;-143.48;65.91;79505.69;5074844;28;20027;-72
2022/10/06 03:23:09;;;;;;;17.60;2.70;;;;;;;-143.48;65.76;79511.63;5074836;28;20020;-70
2022/10/06 03:25:35;;;;;;;8.35;1.95;;;;;;;-143.48;66.26;79519.56;5074034;28;20051;-71
2022/10/06 03:28:00;;;;;;;11.63;1.80;;;;;;;-143.48;66.86;79531.47;5074737;28;20035;-72
2022/10/06 03:30:25;;;;;;;16.80;2.22;;;;;;;-143.48;67.46;79541.38;5073361;28;20078;-69
2022/10/06 03:32:51;;;;;;;13.95;1.80;;;;;;;-143.48;67.42;79549.31;5074712;28;20449;-69
2022/10/06 03:35:17;;;;;;;8.85;1.50;;;;;;;-143.48;67.45;79559.25;5073198;28;20042;-70
2022/10/06 03:37:42;;;;;;;7.85;1.52;;;;;;;-143.48;67.22;79563.22;5074508;28;20410;-70
2022/10/06 03:40:08;;;;;;;7.78;1.38;;;;;;;-143.48;67.50;79573.13;5073167;28;20441;-70
2022/10/06 03:42:33;;;;;;;9.95;1.58;;;;;;;-143.48;67.66;79583.03;5073945;28;20493;-69
2022/10/06 03:44:58;;;;;;;10.95;1.90;;;;;;;-143.48;67.89;79587.00;5073043;28;20115;-70
2022/10/06 03:47:24;;;;;;;6.65;1.27;;;;;;;-143.48;68.56;79602.88;5073014;28;20111;-68
2022/10/06 03:49:49;;;;;;;17.13;1.67;;;;;;;-143.48;68.61;79598.91;5073015;28;20479;-68
2022/10/06 03:52:14;;;;;;;10.50;1.65;;;;;;;-143.48;69.23;79614.78;5072937;28;20056;-69
2022/10/06 03:54:39;;;;;;;14.52;2.10;;;;;;;-143.48;68.72;79612.81;5073966;28;20032;-69
2022/10/06 03:57:05;;;;;;;10.85;1.60;;;;;;;-143.48;68.83;79628.66;5073770;28;20055;-68
2022/10/06 03:59:33;;;;;;;10.35;1.50;;;;;;;-143.48;69.91;79634.63;5072749;28;20077;-69
2022/10/06 04:01:58;;;;;;;11.88;1.60;;;;;;;-143.48;68.93;79634.63;5072833;28;20119;-69
2022/10/06 04:04:24;;;;;;;7.70;1.83;;;;;;;-143.48;69.13;79650.50;5072712;28;20545;-69
2022/10/06 04:06:49;;;;;;;8.20;1.70;;;;;;;-143.48;69.55;79640.56;5074020;28;20464;-69
2022/10/06 04:09:15;;;;;;;14.38;1.73;;;;;;;-143.48;69.12;79640.56;5073928;28;20391;-69
2022/10/06 04:11:41;;;;;;;11.73;1.70;;;;;;;-143.48;69.36;79650.50;5073966;28;20033;-69
2022/10/06 04:14:09;;;;;;;11.85;1.88;;;;;;;-143.48;69.41;79652.47;5072414;28;20017;-69
2022/10/06 04:16:37;;;;;;;15.40;2.08;;;;;;;-143.48;69.30;79656.44;5073737;28;20035;-69
2022/10/06 04:19:05;;;;;;;12.45;1.77;;;;;;;-143.48;69.95;79666.38;5073744;28;20028;-70
2022/10/06 04:21:35;;;;;;;10.43;2.00;;;;;;;-143.48;69.77;79662.41;5072354;28;20028;-70
2022/10/06 04:24:00;;;;;;;9.45;1.65;;;;;;;-143.48;69.47;79660.41;5072361;28;20029;-69
2022/10/06 04:26:30;;;;;;;15.02;1.98;;;;;;;-143.48;69.54;79662.41;5073552;28;20028;-69
2022/10/06 04:28:56;;;;;;;14.73;2.60;;;;;;;-143.48;69.50;79660.41;5073669;28;20162;-69
2022/10/06 04:31:24;;;;;;;13.88;2.15;;;;;;;-143.48;69.27;79662.41;5073569;28;20048;-69
2022/10/06 04:33:51;;;;;;;11.80;1.67;;;;;;;-143.48;69.33;79672.31;5073596;28;20029;-69
2022/10/06 04:36:23;;;;;;;11.13;1.70;;;;;;;-143.48;69.88;79682.25;5072068;28;20050;-69
2022/10/06 04:38:57;;;;;;;16.75;2.63;;;;;;;-143.48;70.48;79700.09;5077176;28;20624;-69
2022/10/06 04:41:27;;;;;;;9.20;1.77;;;;;;;-143.48;70.88;79715.97;5093253;28;20027;-70
2022/10/06 04:43:53;;;;;;;19.38;3.58;;;;;;;-143.48;71.29;79712.00;5093578;28;20051;-70
2022/10/06 04:46:21;;;;;;;16.67;1.73;;;;;;;-143.48;71.41;79717.94;5075530;28;20035;-69
2022/10/06 04:48:46;;;;;;;9.20;2.00;;;;;;;-143.48;70.82;79717.94;5093365;28;20066;-69
2022/10/06 04:51:14;;;;;;;11.32;1.73;;;;;;;-143.48;70.76;79702.06;5075373;28;20107;-69
2022/10/06 04:53:43;;;;;;;14.13;1.88;;;;;;;-143.48;70.31;79712.00;5093204;28;20405;-70
2022/10/06 04:56:22;;;;;;;10.82;1.88;;;;;;;-143.48;70.33;79721.91;5075167;28;20035;-70
2022/10/06 04:58:49;;;;;;;9.20;1.85;;;;;;;-143.48;70.23;79717.94;5075020;28;20027;-69
2022/10/06 05:01:18;;;;;;;16.10;1.90;;;;;;;-143.48;69.91;79710.00;5075243;28;20552;-70
2022/10/06 05:03:45;;;;;;;11.07;1.85;;;;;;;-143.48;69.33;79715.97;5093240;28;20068;-70
2022/10/06 05:06:15;;;;;;;15.27;1.90;;;;;;;-143.48;70.05;79719.94;5074973;28;20024;-69
2022/10/06 05:08:42;;;;;;;11.82;1.83;;;;;;;-143.48;70.33;79727.88;5093225;28;20020;-70
2022/10/06 05:11:10;;;;;;;14.50;2.28;;;;;;;-143.48;70.74;79743.75;5093175;28;20122;-69
2022/10/06 05:13:36;;;;;;;12.18;2.00;;;;;;;-143.48;70.55;79741.75;5093512;28;20031;-69
2022/10/06 05:16:04;;;;;;;12.02;1.85;;;;;;;-143.48;70.60;79741.75;5093148;28;20367;-70
2022/10/06 05:18:30;;;;;;;10.27;1.88;;;;;;;-143.48;71.15;79761.59;5093122;28;20101;-69
2022/10/06 05:21:00;;;;;;;9.10;1.42;;;;;;;-143.48;71.61;79787.38;5093022;28;20479;-70
2022/10/06 05:23:27;;;;;;;11.55;2.10;;;;;;;-143.48;71.67;79779.44;5075012;28;20058;-70
2022/10/06 05:25:54;;;;;;;12.88;1.95;;;;;;;-143.48;71.96;79797.31;5092901;28;20043;-70
2022/10/06 05:28:21;;;;;;;12.57;1.85;;;;;;;-143.48;72.27;79797.31;5074898;28;20031;-70
2022/10/06 05:30:57;;;;;;;9.82;2.10;;;;;;;-143.48;72.05;79791.34;5075164;28;20024;-70
2022/10/06 05:33:24;;;;;;;18.92;2.47;;;;;;;-143.48;71.55;79787.38;5093014;28;20057;-69
2022/10/06 05:35:58;;;;;;;11.65;1.95;;;;;;;-143.48;71.03;79781.44;5074814;28;20423;-70
2022/10/06 05:38:24;;;;;;;12.43;1.73;;;;;;;-143.48;71.24;79789.38;5092890;28;20434;-71
2022/10/06 05:40:49;;;;;;;13.02;2.03;;;;;;;-143.48;71.02;79799.28;5075039;28;20378;-70
2022/10/06 05:43:16;;;;;;;10.80;1.77;;;;;;;-143.48;70.73;79791.34;5074728;28;20027;-70
2022/10/06 05:45:53;;;;;;;12.18;2.05;;;;;;;-143.48;70.04;79785.41;5074665;28;20028;-70
2022/10/06 05:48:18;;;;;;;13.20;2.13;;;;;;;-143.48;69.97;79789.38;5074618;28;20063;-69
2022/10/06 05:50:44;;;;;;;17.67;2.42;;;;;;;-143.48;69.90;79789.38;5092894;28;20119;-71
2022/10/06 05:53:09;;;;;;;22.27;6.07;;;;;;;-143.48;70.19;79793.34;5093026;28;20024;-70
2022/10/06 05:55:34;;;;;;;16.63;2.70;;;;;;;-143.48;70.13;79789.38;5096441;28;20019;-70
2022/10/06 05:58:12;;;;;;;15.02;2.70;;;;;;;-143.48;69.56;79785.41;5079326;28;20024;-69
2022/10/06 06:00:40;;;;;;;18.60;2.63;;;;;;;-143.48;69.14;79785.41;5079525;28;20476;-70
2022/10/06 06:03:09;;;;;;;13.68;2.53;;;;;;;-143.48;69.44;79799.28;5078415;28;20085;-70
2022/10/06 06:05:41;;;;;;;16.23;2.42;;;;;;;-143.48;69.57;79799.28;5096716;28;20019;-70
2022/10/06 06:08:11;;;;;;;12.93;4.13;;;;;;;-143.48;69.63;79793.34;5096834;28;20024;-70
2022/10/06 06:10:36;;;;;;;14.45;2.50;;;;;;;-143.48;69.20;79807.22;5078103;28;20028;-70
2022/10/06 06:13:02;;;;;;;13.27;2.30;;;;;;;-143.48;69.41;79797.31;5077953;28;20446;-71
2022/10/06 06:18:14;;;;;;;14.88;2.33;;;;;;;-143.48;69.25;79805.25;5096848;28;20513;-70
2022/10/06 06:20:40;;;;;;;17.95;2.40;;;;;;;-143.48;69.22;79801.28;5078007;28;20020;-70
2022/10/06 06:23:05;;;;;;;13.15;2.42;;;;;;;-143.48;68.86;79795.31;5096144;28;20024;-69
2022/10/06 06:25:31;;;;;;;12.93;1.88;;;;;;;-143.48;68.82;79809.22;5077783;28;20024;-69
2022/10/06 06:27:56;;;;;;;10.95;2.13;;;;;;;-143.48;68.74;79805.25;5077548;28;20113;-70
2022/10/06 06:30:22;;;;;;;12.52;1.85;;;;;;;-143.48;68.38;79803.25;5095899;28;20020;-70
2022/10/06 06:32:48;;;;;;;12.73;2.20;;;;;;;-143.48;68.22;79799.28;5077652;28;20488;-70
2022/10/06 06:35:13;;;;;;;15.57;2.38;;;;;;;-143.48;67.85;79797.31;5077646;28;20023;-70
2022/10/06 06:37:39;;;;;;;16.88;2.30;;;;;;;-143.48;67.89;79803.25;5095859;28;20415;-69
2022/10/06 06:40:04;;;;;;;12.02;2.15;;;;;;;-143.48;68.03;79801.28;5077208;28;20470;-70
2022/10/06 06:42:30;;;;;;;16.10;2.10;;;;;;;-143.48;68.05;79809.22;5095600;28;20074;-70
2022/10/06 06:44:55;;;;;;;17.27;2.22;;;;;;;-143.48;68.09;79797.31;5095642;28;20119;-70
2022/10/06 06:47:24;;;;;;;14.02;2.00;;;;;;;-143.48;67.60;79795.31;5095633;28;20054;-69
2022/10/06 06:49:50;;;;;;;13.52;1.98;;;;;;;-143.48;67.92;79801.28;5077367;28;20110;-71
2022/10/06 06:52:15;;;;;;;14.35;2.22;;;;;;;-143.48;67.63;79797.31;5077206;28;20059;-71
2022/10/06 06:54:40;;;;;;;11.40;2.28;;;;;;;-143.48;67.63;79793.34;5095284;28;20119;-71
2022/10/06 06:57:06;;;;;;;14.02;2.25;;;;;;;-143.48;67.35;79781.44;5095333;28;20442;-71
2022/10/06 06:59:32;;;;;;;18.27;2.03;;;;;;;-143.48;66.89;79775.47;5076790;28;20032;-71
2022/10/06 07:01:59;;;;;;;11.82;2.10;;;;;;;-143.48;66.99;79777.47;5060497;28;20028;-71
2022/10/06 07:04:25;;;;;;;17.30;3.17;;;;;;;-143.48;67.00;79759.59;5094036;28;20024;-71
2022/10/06 07:06:56;;;;;;;14.40;2.35;;;;;;;-143.48;65.61;79745.72;5094869;28;20386;-71
2022/10/06 07:09:22;;;;;;;16.65;2.50;;;;;;;-143.48;65.77;79755.63;5077000;28;20028;-70
2022/10/06 07:11:49;;;;;;;14.43;2.13;;;;;;;-143.48;66.15;79751.66;5095095;28;20026;-71
2022/10/06 07:14:14;;;;;;;16.27;2.60;;;;;;;-143.48;65.47;79747.69;5095435;28;20020;-71
2022/10/06 07:25:11;;;;;;;12.07;2.13;;;;;;;-143.48;63.96;79678.28;5095243;28;20047;-71
2022/10/06 07:27:42;;;;;;;12.77;2.05;;;;;;;-143.48;63.08;79654.47;5094883;28;20020;-71
2022/10/06 07:30:17;;;;;;;15.30;2.65;;;;;;;-143.48;62.49;79610.81;5076758;28;20038;-70
2022/10/06 07:32:49;;;;;;;9.02;2.00;;;;;;;-143.48;60.60;79555.28;5095033;28;20541;-71
2022/10/06 07:35:16;;;;;;;14.85;2.30;;;;;;;-143.48;60.75;79581.06;5076852;28;20024;-71
2022/10/06 07:37:41;;;;;;;13.73;2.47;;;;;;;-143.48;61.33;79592.97;5094599;28;20016;-69
2022/10/06 07:40:08;;;;;;;15.20;2.20;;;;;;;-143.48;60.67;79569.16;5094448;28;20052;-70
2022/10/06 07:42:50;;;;;;;13.38;2.50;;;;;;;-143.48;58.49;79503.69;5094672;28;20023;-70
2022/10/06 07:45:37;;;;;;;11.35;2.20;;;;;;;-143.48;58.07;79477.91;5094366;28;20073;-70
2022/10/06 07:48:04;;;;;;;10.77;2.53;;;;;;;-143.48;51.54;79174.41;5094496;28;20118;-70
2022/10/06 07:50:30;;;;;;;12.20;2.30;;;;;;;-143.48;48.05;79009.75;5093971;28;20020;-71
2022/10/06 07:52:55;;;;;;;16.33;2.25;;;;;;;-143.48;44.15;78821.34;5076117;28;20456;-71
2022/10/06 07:55:20;;;;;;;19.05;2.65;;;;;;;-143.48;44.25;78849.09;5094401;28;20020;-71
2022/10/06 07:57:46;;;;;;;11.52;2.60;;;;;;;-143.48;42.14;78720.19;5094127;28;20142;-71
2022/10/06 08:00:14;;;;;;;11.45;2.25;;;;;;;-143.48;42.89;78769.75;5076044;28;20028;-71
2022/10/06 08:02:40;;;;;;;14.73;2.83;;;;;;;-143.48;41.88;78722.16;5076012;28;20040;-71
2022/10/06 08:05:07;;;;;;;13.85;2.33;;;;;;;-143.48;41.76;78730.09;5075789;28;20497;-71
2022/10/06 08:07:32;;;;;;;14.50;2.70;;;;;;;-143.48;41.15;78716.22;5075551;28;20046;-71
2022/10/06 08:09:58;;;;;;;8.30;2.15;;;;;;;-143.48;41.05;78676.53;5093785;28;20501;-71
2022/10/06 08:12:32;;;;;;;10.43;2.30;;;;;;;-143.48;39.93;78621.00;5075587;28;20028;-71
2022/10/06 08:15:01;;;;;;;10.23;2.40;;;;;;;-143.48;40.68;78644.81;5075634;28;20077;-71
2022/10/06 08:17:28;;;;;;;12.40;2.42;;;;;;;-143.48;39.47;78609.09;5074980;28;20024;-73
2022/10/06 08:19:53;;;;;;;9.30;2.20;;;;;;;-143.48;38.92;78549.59;5075603;28;20024;-71
2022/10/06 08:22:20;;;;;;;10.45;2.17;;;;;;;-143.48;38.21;78505.97;5093696;28;20378;-71
2022/10/06 08:24:46;;;;;;;12.25;2.40;;;;;;;-143.48;38.41;78545.66;5093719;28;20387;-72
2022/10/06 08:27:11;;;;;;;13.05;2.60;;;;;;;-143.48;38.95;78533.75;5075381;28;20027;-72
2022/10/06 08:29:36;;;;;;;12.33;2.30;;;;;;;-143.48;39.20;78575.41;5094295;28;20056;-72
2022/10/06 08:32:02;;;;;;;10.00;2.57;;;;;;;-143.48;37.65;78490.13;5093963;28;20316;-71
2022/10/06 08:34:27;;;;;;;10.45;2.03;;;;;;;-143.48;37.95;78521.84;5094247;28;20625;-72
2022/10/06 08:36:53;;;;;;;10.50;2.17;;;;;;;-143.48;37.69;78424.66;5094065;28;20383;-72
2022/10/06 08:39:18;;;;;;;9.65;2.55;;;;;;;-143.48;37.81;78416.72;5093671;28;20171;-71
2022/10/06 08:41:50;;;;;;;7.25;2.15;;;;;;;-143.48;37.28;78388.97;5093935;28;20062;-72
2022/10/06 08:44:39;;;;;;;11.70;2.58;;;;;;;-143.48;34.91;78335.41;5094081;28;20024;-71
2022/10/06 08:47:22;;;;;;;6.65;2.05;;;;;;;-143.48;35.55;78347.31;5075642;28;20082;-72
2022/10/06 08:49:49;;;;;;;9.18;2.30;;;;;;;-143.48;35.44;78323.53;5093621;28;20516;-71
2022/10/06 08:52:19;;;;;;;8.77;2.30;;;;;;;-143.48;35.12;78264.03;5075449;28;20039;-71
2022/10/06 08:54:44;;;;;;;10.48;2.20;;;;;;;-143.48;35.23;78301.72;5093645;28;20375;-71
2022/10/06 08:57:23;;;;;;;6.57;2.03;;;;;;;-143.48;35.30;78392.94;5093682;28;20028;-70
2022/10/06 08:59:51;;;;;;;12.25;2.45;;;;;;;-143.48;33.87;78224.38;5093254;28;20274;-71
2022/10/06 09:02:30;;;;;;;8.77;2.10;;;;;;;-143.48;34.21;78262.03;5075406;28;20023;-72
2022/10/06 09:05:03;;;;;;;12.70;2.50;;;;;;;-143.48;34.22;78305.66;5093422;28;20412;-72
2022/10/06 09:07:28;;;;;;;9.65;2.17;;;;;;;-143.48;34.47;78266.00;5093251;28;20035;-73
2022/10/06 09:10:15;;;;;;;8.98;1.90;;;;;;;-143.48;34.12;78252.13;5075025;28;20027;-72
2022/10/06 09:13:03;;;;;;;10.05;2.33;;;;;;;-143.48;33.60;78230.31;5093315;28;20065;-71
2022/10/06 09:15:35;;;;;;;8.77;2.28;;;;;;;-143.48;33.37;78182.72;5075004;28;20382;-73
2022/10/06 09:18:21;;;;;;;8.80;2.15;;;;;;;-143.48;33.73;78202.56;5075287;28;20016;-70
2022/10/06 09:20:51;;;;;;;9.85;2.10;;;;;;;-143.48;39.61;78743.97;5093684;28;20024;-71
2022/10/06 09:23:46;;;;;;;12.40;2.30;;;;;;;-143.48;44.43;79055.38;5093635;28;20142;-71
2022/10/06 09:26:04;;;;;;;9.70;2.08;;;;;;;-143.48;46.06;79126.78;5093203;28;20056;-71
2022/10/06 09:28:29;;;;;;;7.43;2.00;;;;;;;-143.48;47.57;79202.16;5096406;28;20027;-71
2022/10/06 09:30:56;;;;;;;14.38;2.40;;;;;;;-143.48;46.00;79067.28;5095819;28;20115;-71
2022/10/06 09:33:24;;;;;;;7.47;1.85;;;;;;;-143.48;47.14;79150.59;5079098;28;20032;-69
2022/10/06 09:36:07;;;;;;;7.55;1.90;;;;;;;-143.48;45.65;79023.66;5097275;28;20175;-70
2022/10/06 09:38:52;;;;;;;10.00;1.92;;;;;;;-143.48;49.82;79297.38;5097176;28;20020;-69
2022/10/06 09:41:21;;;;;;;7.30;1.70;;;;;;;-143.48;43.57;78849.09;5079114;28;20482;-72
2022/10/06 09:43:52;;;;;;;15.52;2.00;;;;;;;-143.48;45.57;79178.38;5078018;28;20542;-69
2022/10/06 09:46:29;;;;;;;8.20;1.65;;;;;;;-143.48;48.66;79303.34;5096699;28;20413;-69
2022/10/06 09:49:30;;;;;;;8.25;1.50;;;;;;;-143.48;45.09;79192.25;5078965;28;20020;-68
2022/10/06 09:52:08;;;;;;;6.43;1.58;;;;;;;-143.48;36.67;78486.16;5078987;28;20444;-71
2022/10/06 09:54:33;;;;;;;5.95;1.40;;;;;;;-143.48;36.38;78505.97;5097170;28;20024;-71
2022/10/06 09:57:13;;;;;;;6.65;1.30;;;;;;;-143.48;35.82;78605.16;5096866;28;20035;-71
2022/10/06 09:59:44;;;;;;;8.32;1.70;;;;;;;-143.48;38.84;78847.13;5096603;28;20467;-71
2022/10/06 10:02:29;;;;;;;6.72;1.50;;;;;;;-143.48;36.73;78607.13;5097016;28;20043;-71
2022/10/06 10:04:56;;;;;;;7.55;1.50;;;;;;;-143.48;36.67;78722.16;5097013;28;20027;-71
2022/10/06 10:07:24;;;;;;;5.90;1.35;;;;;;;-143.48;38.68;78807.44;5097031;28;20070;-71
2022/10/06 10:09:52;;;;;;;11.10;1.80;;;;;;;-143.48;38.52;78833.22;5096766;28;20020;-70
2022/10/06 10:12:24;;;;;;;7.43;1.70;;;;;;;-143.48;38.50;78878.84;5096662;28;20081;-71
2022/10/06 10:14:50;;;;;;;8.77;1.83;;;;;;;-143.48;39.23;78857.03;5096852;28;20028;-71
2022/10/06 10:17:24;;;;;;;8.20;1.77;;;;;;;-143.48;38.19;78845.13;5077627;28;20167;-70
2022/10/06 10:19:53;;;;;;;7.30;1.40;;;;;;;-143.48;39.42;78946.28;5077516;28;20118;-69
2022/10/06 10:22:23;;;;;;;7.07;1.23;;;;;;;-143.48;39.72;78892.75;5096322;28;20465;-71
2022/10/06 10:24:55;;;;;;;10.48;1.75;;;;;;;-143.48;39.42;78934.38;5096517;28;20024;-70
2022/10/06 10:27:44;;;;;;;5.85;1.30;;;;;;;-143.48;39.64;78910.59;5096211;28;20024;-70
2022/10/06 10:30:13;;;;;;;7.35;1.50;;;;;;;-143.48;39.80;78829.25;5096168;28;20027;-70
2022/10/06 10:32:47;;;;;;;5.13;1.38;;;;;;;-143.48;38.56;78847.13;5096477;28;20023;-70
2022/10/06 10:35:23;;;;;;;7.43;1.42;;;;;;;-143.48;39.45;78851.09;5078028;28;20462;-70
2022/10/06 10:37:54;;;;;;;6.72;1.30;;;;;;;-143.48;39.14;78876.88;5077738;28;20063;-71
2022/10/06 10:40:22;;;;;;;7.53;1.73;;;;;;;-143.48;38.91;78809.44;5094997;28;20093;-71
2022/10/06 10:42:51;;;;;;;7.25;1.30;;;;;;;-143.48;39.57;78861.00;5096162;28;20459;-71
2022/10/06 10:45:23;;;;;;;8.15;1.50;;;;;;;-143.48;38.79;78847.13;5096072;28;20413;-71
2022/10/06 10:47:49;;;;;;;5.35;1.38;;;;;;;-143.48;38.68;78870.91;5078110;28;20028;-71
2022/10/06 10:50:38;;;;;;;8.07;1.50;;;;;;;-143.48;38.85;78902.66;5096052;28;20031;-71
2022/10/06 10:53:10;;;;;;;10.38;1.75;;;;;;;-143.48;38.68;78920.50;5095739;28;20076;-72
2022/10/06 10:55:41;;;;;;;8.45;1.33;;;;;;;-143.48;39.72;78948.28;5077495;28;20031;-70
2022/10/06 10:58:24;;;;;;;7.03;1.40;;;;;;;-143.48;39.30;78833.22;5077658;28;20402;-71
2022/10/06 11:00:52;;;;;;;;;;;;;;;-143.48;39.34;79035.56;5095821;28;20053;-70
2022/10/06 11:03:17;;;;;;;8.60;1.65;;;;;;;-143.48;39.86;78983.97;5095893;28;19908;-71
2022/10/06 11:06:19;;;;;;;8.63;1.60;;;;;;;-143.48;39.96;78983.97;5095536;28;20463;-71
2022/10/06 11:09:21;;;;;;;6.90;1.40;;;;;;;-143.48;40.33;78928.44;5095796;28;20030;-71
2022/10/06 11:12:13;;;;;;;9.40;1.67;;;;;;;-143.48;40.97;79023.66;5036257;28;20168;-72
2022/10/06 11:14:53;;;;;;;11.23;1.85;;;;;;;-143.48;42.24;79069.28;5095375;28;20036;-72
2022/10/06 11:17:39;;;;;;;11.02;1.40;;;;;;;-143.48;40.99;78938.34;5094452;28;20038;-70
2022/10/06 11:20:38;;;;;;;6.75;1.52;;;;;;;-143.48;39.95;78948.28;5095560;28;20096;-70
2022/10/06 11:23:17;;;;;;;10.20;1.73;;;;;;;-143.48;39.32;78918.53;5095306;28;20331;-70
2022/10/06 11:26:21;;;;;;;7.18;1.60;;;;;;;-143.48;39.54;78914.56;5076937;28;20028;-70
2022/10/06 11:29:18;;;;;;;8.43;1.75;;;;;;;-143.48;39.55;78864.97;5095362;28;20419;-70
2022/10/06 11:31:54;;;;;;;5.20;1.60;;;;;;;-143.48;38.81;78845.13;5076261;28;20043;-71
2022/10/06 11:34:19;;;;;;;6.32;1.60;;;;;;;-143.48;37.26;78880.84;5095359;28;20428;-71